This is the latest recevied weather packets stored in our database for station/object M0SDM. If no packets are shown the sender has not sent any weather packets the latest 10 day(s).
| Time | Temp. | Humidity | Pressure | Rain* | Wind** | Luminosity | Snow |
|---|---|---|---|---|---|---|---|
| 1777569021 | 20° C | 29% | 1018.8 hPa | 0 mm | - | - | - |
| 1777568121 | 20° C | 29% | 1018.8 hPa | 0 mm | - | - | - |
| 1777567221 | 20.56° C | 26% | 1018.6 hPa | 0 mm | - | - | - |
| 1777566321 | 20.56° C | 26% | 1018.5 hPa | 0 mm | - | - | - |
| 1777565421 | 21.67° C | 27% | 1018.1 hPa | 0 mm | - | - | - |
| 1777564521 | 21.67° C | 28% | 1017.8 hPa | 0 mm | - | - | - |
| 1777563621 | 21.67° C | 29% | 1018.2 hPa | 0 mm | - | - | - |
| 1777562721 | 21.67° C | 29% | 1018 hPa | 0 mm | - | - | - |
| 1777561821 | 21.67° C | 29% | 1018.5 hPa | 0 mm | - | - | - |
| 1777560921 | 21.67° C | 30% | 1018.7 hPa | 0 mm | - | - | - |
| 1777560021 | 21.67° C | 31% | 1018.7 hPa | 0 mm | - | - | - |
| 1777559121 | 21.67° C | 30% | 1018.8 hPa | 0 mm | - | - | - |
| 1777558221 | 21.67° C | 32% | 1019 hPa | 0 mm | - | - | - |
| 1777557321 | 21.67° C | 31% | 1019.3 hPa | 0 mm | - | - | - |
| 1777556421 | 21.67° C | 32% | 1019.8 hPa | 0 mm | - | - | - |
| 1777555521 | 21.67° C | 32% | 1020.2 hPa | 0 mm | - | - | - |
| 1777554621 | 21.67° C | 33% | 1020.2 hPa | 0 mm | - | - | - |
| 1777553721 | 21.11° C | 32% | 1020.3 hPa | 0 mm | - | - | - |
| 1777552821 | 21.11° C | 34% | 1020.6 hPa | 0 mm | - | - | - |
| 1777551921 | 21.11° C | 34% | 1020.6 hPa | 0 mm | - | - | - |
| 1777551021 | 20.56° C | 35% | 1021.1 hPa | 0 mm | - | - | - |
| 1777550121 | 20.56° C | 37% | 1021.3 hPa | 0 mm | - | - | - |
| 1777549221 | 20° C | 38% | 1021.7 hPa | 0 mm | - | - | - |
| 1777548321 | 20° C | 38% | 1021.8 hPa | 0 mm | - | - | - |
| 1777547421 | 19.44° C | 38% | 1021.8 hPa | 0 mm | - | - | - |
* Rain latest hour (hover to see other rain measurements)
** Current wind speed in m/s (hover to see current wind gust speed)